SBOSBO CHQ / LGSA
Speedbird OnlineSpeedbird Online CHQ / LGSA

Chania International Airport
02:12 7°C

Location Chania, Greece
Latitude: 35.531700134277344
Longitude: 24.149700164794922
Web Wikipedia
Altitude 149 Meter / 490 Feet
Distance 2,606 KM / 1,619 Miles
from London.
Time Zone UTC +2 hours (Europe/Athens)
Codes IATA: CHQ
ICAO: LGSA
Currency £1 equals EUR 1.13
Runways
RunwayLength (m)Surface
113347Asphalt
293347Asphalt
Radio
TypeDescriptionFrequency
A/GCHANIA RDO563.7
APPAPP118.125
GNDGND121.7
MISCRANGER BASE25.24
OPSBASE OPS35.94
PMSVPMSV METRO35.94
POSTBULL PEN27.895
TWRTWR121.1
Live ATC
METAR LGSA 081420Z 02012KT 9999 FEW015 BKN025 BKN080 07/03 Q1028
TAF TAF LGSA 081100Z 0812/0912 03014KT 9999 FEW010 BKN020 OVC080 PROB30 TEMPO 0812/0818 5000 RA SCT010 FEW018TCU BKN020 OVC070
Weather As Of 09 Feb 2023 02:12
Description Broken clouds
Wind 15 km/h from North (20°)
Cloud Cover 75%
Precipitation Rain: none, Snow: none
Sunrise 07:16
Sunset 17:58



Support Speedbird Online

© 2017-2023 Speedbird Online